Jump to content
Tim Wong

[27 JUN 2015 | 12-16z] Beijing - Hongkong Express Way

Recommended Posts

xdO475a.png

 

 

Event Date and Time

Saturday, June 27th 2015, 1200z - 1600z

Feature Airports

ZBAA Beijing Capital International Airport

VHHH Hongkong International Airport

 

Routes

ZBAA - VHHH

RENOB G212 LARAD B458 WXI A461 LIG R473 BEMAG V5 CON W6 SAREX W7 ZUH R473 SIERA

 

VHHH - ZBAA

BEKOL A461 VYK

 

Charts

eAIP People's Republic of China (AIP -> AD): http://www.eaipchina.cn/

Hong Kong eAIP: http://www.hkatc.gov.hk/HK_AIP/ad.htm

Recommended Scenery

VHHH:

FSX: http://secure.simmarket.com/taxi2gate-hong-kong-international-airport-vhhh-fsx-p3d-(de_8904).phtml

FS2004: http://secure.simmarket.com/imagine-sim-vhhh-hong-kong-chek-lap-kok-fs2004-(en_9270)-(de_9270).phtml

 

ZBAA:

X-Plane 10: https://www.dropbox.com/sh/mlfd5rc8ne23emy/AACY7yVINbkAUp7PibJxtKdta?dl=0

FSX: http://www.vatprc.net/jdownloads/vatprc_scenery/FSX/beijing-zbaa_fsx.rar

 

RVSM Rules

China implement RVSM in Metric level system. For details, please visit Chinese RVSM

Share this post


Link to post
Share on other sites

One day left ... everybody is welcome to join our flight event.

 

See you tomorrow!

Share this post


Link to post
Share on other sites
ZBAA - Beijing:

 

METAR: ZBAA 270830Z VRB01MPS 4500 HZ NSC 29/22 Q1005 NOSIG

TAF: ZBAA 270330Z 2706/2806 14004MPS 5000 HZ NSC TX31/2707Z TN22/21Z

 

VHHH - Hongkong

 

METAR: VHHH 270830Z 21009KT 160V250 9999 FEW022 33/25 Q1007 NOSIG

TAF: VHHH 270500Z 2706/2812 19010KT 9999 FEW020 TX33/2706Z TX34/2806Z TN29/2722Z

TEMPO 2706/2710 25010KT

TEMPO 2718/2803 VRB05KT

TEMPO 2803/2810 25010KT

 

Here are the latest weather information.

 

See you later!

Share this post


Link to post
Share on other sites

Please sign in to comment

You will be able to leave a comment after signing in



Sign In Now

×
×
  • Create New...